< < Back
Terminal Aerodrome Forecast


Current Version              Previous Versions:   1  2  3  4  5  6  7  8  9  

Terminal Aerodrome Forecast

455
FTUS42 KTAE 292320
TAFTLH
TAF
KTLH 292320Z 3000/3024 11003KT P6SM SCT250
     FM301300 09006KT P6SM SCT040 BKN250=



Latest METAR

873
SAUS80 KWBC 301200 RRA
MTRTLH
METAR KTLH 301153Z 11006KT 10SM FEW030 FEW075 23/19 A3012 RMK AO2 SLP199
CB DSNT SW T02280194 10239 20200 53013


USA.gov is the U.S. government's official web portal to all federal, state and local government web resources and services.